Flight Track Log - Related Links

Times and Time Zones

All times are in EDT time to prevent confusion due to time zone crossing. See the SWA709 flight status page for this flight to view local times or setup timezone preferences in your user account.

Time Position Orientation Groundspeed Altitude Reporting Facility
EDT Latitude Longitude Course Direction KTS MPH feet Rate Location/Type
Thu 11:00:54 AM 36.1103 -115.2497 262° West 233 268 6,800  Level Los Angeles Center
Thu 11:01:56 AM 36.0456 -115.3211 222° Southwest 290 334 9,000 1,171 Climbing Los Angeles Center
Thu 11:02:57 AM 35.9689 -115.3619 203° Southwest 298 343 9,200 1,268 Climbing Los Angeles Center
Thu 11:03:59 AM 35.8978 -115.4253 216° Southwest 323 372 11,600 3,048 Climbing Los Angeles Center
Thu 11:05:00 AM 36.3607 -116.5129 316° Northwest  Level FlightAware Approximate
Thu 11:05:01 AM 35.8947 -115.5433 268° West 339 390 15,500  Level Los Angeles Center
Thu 11:06:03 AM 35.8950 -115.6769 270° West 357 411 19,200 3,387 Climbing Los Angeles Center
Thu 11:07:05 AM 35.8944 -115.8058 270° West 373 429 22,500 2,806 Climbing Los Angeles Center
Thu 11:08:07 AM 35.8967 -115.9264 271° West 382 440 25,000 2,274 Climbing Los Angeles Center
Thu 11:09:09 AM 35.9278 -116.0550 287° West 393 452 27,200 2,177 Climbing Los Angeles Center
Thu 11:10:11 AM 35.9756 -116.2067 291° West 399 459 29,500 2,323 Climbing Los Angeles Center
Thu 11:11:13 AM 36.0128 -116.3264 291° West 382 440 32,000 1,210 Climbing Los Angeles Center
Thu 11:12:15 AM 36.0517 -116.4458 292° West 376 433 32,000  Level Los Angeles Center
Thu 11:13:17 AM 36.0900 -116.5664 292° West 378 435 32,000  Level Los Angeles Center
Thu 11:14:31 AM 36.1278 -116.6869 291° West 379 436 32,000  Level Los Angeles Center
Thu 11:15:33 AM 36.1742 -116.8344 291° West 383 441 32,000  Level Los Angeles Center
Thu 11:16:35 AM 36.2203 -116.9814 291° West 384 442 32,000  Level Los Angeles Center
Thu 11:17:37 AM 36.2592 -117.1058 291° West 387 445 32,000  Level Los Angeles Center
Thu 11:18:40 AM 36.2967 -117.2292 291° West 385 443 32,000  Level Los Angeles Center
Thu 11:19:42 AM 36.3347 -117.3514 291° West 385 443 32,000  Level Los Angeles Center
Thu 11:20:43 AM 36.3647 -117.4503 291° West 384 442 32,000  Level Los Angeles Center
Thu 11:21:46 AM 36.4178 -117.6236 291° West 385 443 32,000  Level Los Angeles Center
Thu 11:22:48 AM 36.4556 -117.7475 291° West 385 443 32,000  Level Los Angeles Center
Thu 11:23:50 AM 36.4936 -117.8722 291° West 386 444 32,000  Level Los Angeles Center
Thu 11:24:52 AM 36.5314 -117.9981 291° West 387 445 32,000  Level Los Angeles Center
Thu 11:25:54 AM 36.5675 -118.1231 290° West 387 445 32,000  Level Los Angeles Center
Thu 11:26:33 AM 36.5983 -118.2247 291° West 384 442 32,000  Level Oakland Center
Thu 11:27:34 AM 36.6358 -118.3506 290° West 386 444 32,000  Level Oakland Center
Thu 11:28:35 AM 36.6733 -118.4758 290° West 386 444 32,000  Level Oakland Center
Thu 11:29:37 AM 36.7081 -118.5928 290° West 379 436 32,000  Level Oakland Center
Thu 11:30:38 AM 36.7447 -118.7158 290° West 382 440 32,000  Level Oakland Center
Thu 11:31:39 AM 36.7797 -118.8381 290° West 379 436 32,000  Level Oakland Center
Thu 11:32:40 AM 36.8144 -118.9606 290° West 374 430 32,000  Level Oakland Center
Thu 11:33:42 AM 36.8578 -119.1106 290° West 385 443 32,000  Level Oakland Center
Thu 11:34:43 AM 36.8936 -119.2356 290° West 386 444 32,000  Level Oakland Center
Thu 11:35:44 AM 36.9294 -119.3611 290° West 389 448 32,000  Level Oakland Center
Thu 11:36:46 AM 36.9644 -119.4878 289° West 392 451 32,000  Level Oakland Center
Thu 11:37:47 AM 36.9994 -119.6122 289° West 384 442 32,000  Level Oakland Center
Thu 11:38:48 AM 37.0339 -119.7375 289° West 382 440 32,000 -1,008 Level Oakland Center
Thu 11:39:52 AM 37.0697 -119.8622 290° West 381 438 29,900 -2,146 Descending Oakland Center
Thu 11:40:51 AM 37.1036 -119.9908 288° West 369 425 27,600 -2,231 Descending Oakland Center
Thu 11:41:53 AM 37.1372 -120.1075 290° West 349 402 25,400 -2,488 Descending Oakland Center
Thu 11:42:54 AM 37.1686 -120.2247 289° West 352 405 22,500 -2,607 Descending Oakland Center
Thu 11:43:55 AM 37.2006 -120.3425 289° West 354 407 20,100 -2,606 Descending Oakland Center
Thu 11:44:33 AM 37.2167 -120.4333 283° West 366 421 18,200 -2,388 Descending Northern Cal TRACON
Thu 11:45:33 AM 37.1833 -120.5500 250° West 388 447 16,200 -2,421 Descending Northern Cal TRACON
Thu 11:46:27 AM 37.1667 -120.6667 260° West 351 404 13,600 -2,556 Descending Northern Cal TRACON
Thu 11:47:21 AM 37.1500 -120.7667 258° West 355 409 11,600 -1,787 Descending Northern Cal TRACON
Thu 11:48:01 AM 37.1244 -120.8353 245° Southwest 324 373 10,800 -950 Descending Oakland Center
Thu 11:49:02 AM 37.0625 -120.9131 225° Southwest 321 369 10,000 -390 Descending Oakland Center
Thu 11:50:04 AM 37.0003 -120.9814 221° Southwest 304 350 10,000  Level Oakland Center
Thu 11:51:05 AM 36.9872 -121.0728 260° West 287 330 10,000 -49 Level Oakland Center
Thu 11:52:06 AM 36.9983 -121.1644 279° West 277 319 9,900 -537 Descending Oakland Center
Thu 11:53:08 AM 37.0097 -121.2600 279° West 279 321 8,900 -976 Descending Oakland Center
Thu 11:54:09 AM 37.0231 -121.3708 279° West 272 313 7,900 -1,230 Descending Oakland Center
Thu 11:55:10 AM 37.0353 -121.4631 279° West 270 311 6,400 -1,220 Descending Oakland Center
Thu 11:56:12 AM 37.0761 -121.5414 303° West 269 310 5,400 -732 Descending Oakland Center
Thu 11:57:13 AM 37.1150 -121.6186 302° West 265 305 4,900 -244 Descending Oakland Center
Thu 11:58:15 AM 37.1508 -121.6903 302° West 251 289 4,900 -341 Level Oakland Center
Thu 11:59:16 AM 37.1869 -121.7483 308° West 231 266 4,200 -878 Descending Oakland Center
Thu 12:00:18 PM 37.2333 -121.7939 322° Northwest 218 251 3,100 -976 Descending Oakland Center
Thu 12:01:19 PM 37.2717 -121.8333 321° Northwest 196 226 2,200 -927 Descending Oakland Center
Thu 12:02:21 PM 37.3114 -121.8758 320° Northwest 170 196 1,200 -829 Descending Oakland Center
Thu 12:03:22 PM 37.3386 -121.9033 321° Northwest 147 169 500 9,246 Descending Oakland Center
Thu 12:04:23 PM 37.3644 -121.9322 318° Northwest 133 153 20,000 19,180 Climbing Oakland Center

Login

Don't have an account? Register now (free) for customized features, flight alerts, and more!